Fresno Yosemite International Airport Fresno US
ICAO: KFAT
IATA: FAT
Category: Medium
Scheduled Services: Yes

Elevation: 336 ft
TransAlt. 18000 ft.

Airport Communications:
APP/DEP:35.195
APP/DEP:118.5
ATIS:121.35
CLNC DEL:124.35
GND:121.7
ANG OPS:138.15
ARNG OPS:40.95
RANCHO RDO:122.2
TWR:118.2
UNICOM:122.95

KFAT Zoom In..

Runways:

(A) RW 11L length 9539 ft width 150 ft
LOC 111.30 / hdg 111

(B) RW 11R length 8008 ft width 150 ft
LOC 111.30 / hdg 111

(C) RW 29L length 8008 ft width 150 ft
LOC 111.30 / hdg 291

(D) RW 29R length 9539 ft width 150 ft
ILS 111.30 / hdg 291

Location; KFAT
Day. 23 / Time. 09.53 Zulu
* Altimeter: 29.99
* Temperature: 26° c. 78.8°f.
* Wind from: 320° Speed 07 kn.
Dewpoint: 13° c.
Visibility: 10 Statute Miles.
Clouds: Clear (automated report).

KFAT 230953Z 32007KT 10SM CLR 26/13 A2999 RMK AO2 SLP150 T02610133


Wind From 320°
Speed 07 kn.

 
 
jpsmedia.com for Web Design worldairports.se 2018   terms of use